createdAt,value
2019-05-22T00:01:33.666Z,99.90
2019-05-22T00:04:28.659Z,99.90
2019-05-22T00:07:00.956Z,99.90
2019-05-22T00:09:37.661Z,99.90
2019-05-22T00:12:10.996Z,99.90
2019-05-22T00:14:40.598Z,99.90
2019-05-22T00:17:10.170Z,99.90
2019-05-22T00:19:41.737Z,99.90
2019-05-22T00:22:15.511Z,99.90
2019-05-22T00:24:46.586Z,99.90
2019-05-22T00:27:17.430Z,99.90
2019-05-22T00:29:49.485Z,99.90
2019-05-22T00:32:30.432Z,99.90
2019-05-22T00:35:00.752Z,99.90
2019-05-22T00:37:29.569Z,99.90
2019-05-22T00:39:59.867Z,99.90
2019-05-22T00:42:31.572Z,99.90
2019-05-22T00:45:01.919Z,99.90
2019-05-22T00:47:33.123Z,99.90
2019-05-22T00:50:07.790Z,99.90
2019-05-22T00:52:49.879Z,99.90
2019-05-22T00:55:52.042Z,99.90
2019-05-22T00:58:33.066Z,99.90
2019-05-22T01:01:29.886Z,99.90
2019-05-22T01:04:01.201Z,99.90
2019-05-22T01:06:32.523Z,99.90
2019-05-22T01:09:07.159Z,99.90
2019-05-22T01:11:38.884Z,99.90
2019-05-22T01:14:09.167Z,99.90
2019-05-22T01:16:39.134Z,99.90
2019-05-22T01:19:10.132Z,99.90
2019-05-22T01:21:39.737Z,99.90
2019-05-22T01:24:09.886Z,99.90
2019-05-22T01:26:41.085Z,99.90
2019-05-22T01:29:10.990Z,99.90
2019-05-22T01:31:44.781Z,99.90
2019-05-22T01:34:20.088Z,99.90
2019-05-22T01:37:04.342Z,99.90
2019-05-22T01:39:47.024Z,99.90
2019-05-22T01:42:22.529Z,99.90
2019-05-22T01:45:04.660Z,99.90
2019-05-22T01:47:42.811Z,99.90
2019-05-22T01:50:18.022Z,99.90
2019-05-22T01:52:48.803Z,99.90
2019-05-22T01:55:20.215Z,99.90
2019-05-22T01:57:52.508Z,99.90
2019-05-22T02:00:21.055Z,99.90
2019-05-22T02:02:50.960Z,99.90
2019-05-22T02:05:20.417Z,99.90
2019-05-22T02:07:50.350Z,99.90
2019-05-22T02:10:25.293Z,99.90
2019-05-22T02:12:58.730Z,99.90
2019-05-22T02:15:30.052Z,99.90
2019-05-22T02:18:02.004Z,99.90
2019-05-22T02:20:31.633Z,99.90
2019-05-22T02:23:00.106Z,99.90
2019-05-22T02:25:29.895Z,99.90
2019-05-22T02:28:00.065Z,99.90
2019-05-22T02:30:30.037Z,99.90
2019-05-22T02:33:00.851Z,99.90
2019-05-22T02:35:30.211Z,99.90
2019-05-22T02:37:58.164Z,99.90
2019-05-22T02:40:32.238Z,99.90
2019-05-22T02:43:02.877Z,99.90
2019-05-22T02:45:31.870Z,99.90
2019-05-22T02:48:01.567Z,99.90
2019-05-22T02:50:33.742Z,99.90
2019-05-22T02:53:05.143Z,99.90
2019-05-22T02:55:35.032Z,99.90
2019-05-22T02:58:05.393Z,99.90
2019-05-22T03:00:47.135Z,99.90
2019-05-22T03:03:17.136Z,99.90
2019-05-22T03:05:45.650Z,99.90
2019-05-22T03:08:13.971Z,99.90
2019-05-22T03:10:42.825Z,99.90
2019-05-22T03:13:12.232Z,99.90
2019-05-22T03:15:41.614Z,99.90
2019-05-22T03:18:12.396Z,99.90
2019-05-22T03:20:42.928Z,99.90
2019-05-22T03:23:34.987Z,99.90
2019-05-22T03:26:07.610Z,99.90
2019-05-22T03:28:37.542Z,99.90
2019-05-22T03:31:06.989Z,99.90
2019-05-22T03:33:38.046Z,99.90
2019-05-22T03:36:09.039Z,99.90
2019-05-22T03:38:39.736Z,99.90
2019-05-22T03:41:10.353Z,99.90
2019-05-22T03:43:43.386Z,99.90
2019-05-22T03:46:33.910Z,99.90
2019-05-22T03:49:04.988Z,99.90
2019-05-22T03:51:35.057Z,99.90
2019-05-22T03:54:05.084Z,99.90
2019-05-22T03:56:38.835Z,99.90
2019-05-22T03:59:08.253Z,99.90
2019-05-22T04:01:37.036Z,99.90
2019-05-22T04:04:06.813Z,99.90
2019-05-22T04:06:36.466Z,99.90
2019-05-22T04:09:26.246Z,99.90
2019-05-22T04:11:55.292Z,99.90
2019-05-22T04:14:32.372Z,99.90
2019-05-22T04:17:01.839Z,99.90
2019-05-22T04:19:47.320Z,99.90
2019-05-22T04:22:00.192Z,99.90
2019-05-22T04:24:29.436Z,99.90
2019-05-22T04:26:58.005Z,99.90
2019-05-22T04:29:27.654Z,99.90
2019-05-22T04:31:59.724Z,99.90
2019-05-22T04:34:30.850Z,99.90
2019-05-22T04:37:00.499Z,99.90
2019-05-22T04:39:31.408Z,99.90
2019-05-22T04:42:01.194Z,99.90
2019-05-22T04:44:29.696Z,99.90
2019-05-22T04:46:59.896Z,99.90
2019-05-22T04:49:28.935Z,99.90
2019-05-22T04:51:57.182Z,99.90
2019-05-22T04:54:25.030Z,99.90
2019-05-22T04:56:52.886Z,99.90
2019-05-22T04:59:20.787Z,99.90
2019-05-22T05:01:49.432Z,99.90
2019-05-22T05:04:18.005Z,99.90
2019-05-22T05:06:46.720Z,99.90
2019-05-22T05:09:15.532Z,99.90
2019-05-22T05:11:43.542Z,99.90
2019-05-22T05:14:11.802Z,99.90
2019-05-22T05:16:39.837Z,99.90
2019-05-22T05:19:08.205Z,99.90
2019-05-22T05:21:37.659Z,99.90
2019-05-22T05:24:06.776Z,99.90
2019-05-22T05:26:36.913Z,99.90
2019-05-22T05:29:10.079Z,99.90
2019-05-22T05:31:40.701Z,99.90
2019-05-22T05:34:22.442Z,99.90
2019-05-22T05:36:54.019Z,99.90
2019-05-22T05:40:08.480Z,99.90
2019-05-22T05:42:40.661Z,99.90
2019-05-22T05:45:13.552Z,99.90
2019-05-22T05:47:42.913Z,99.90
2019-05-22T05:50:12.423Z,99.90
2019-05-22T05:52:42.167Z,99.90
2019-05-22T05:55:12.442Z,99.90
2019-05-22T05:58:31.649Z,99.90
2019-05-22T06:01:20.973Z,99.90
2019-05-22T06:03:50.749Z,99.90
2019-05-22T06:07:11.844Z,99.90
2019-05-22T06:09:41.516Z,99.90
2019-05-22T06:12:11.313Z,99.90
2019-05-22T06:14:41.359Z,99.90
2019-05-22T06:18:00.389Z,99.90
2019-05-22T06:20:30.000Z,99.90
2019-05-22T06:23:50.002Z,99.90
2019-05-22T06:26:52.765Z,99.90
2019-05-22T06:29:28.451Z,99.90
2019-05-22T06:32:46.072Z,99.90
2019-05-22T06:35:16.599Z,99.90
2019-05-22T06:37:59.126Z,99.90
2019-05-22T06:40:28.692Z,99.90
2019-05-22T06:43:50.570Z,99.90
2019-05-22T06:46:42.919Z,99.90
2019-05-22T06:49:43.550Z,99.90
2019-05-22T06:52:16.269Z,99.90
2019-05-22T06:54:44.763Z,99.90
2019-05-22T06:57:15.250Z,99.90
2019-05-22T06:59:46.199Z,99.90
2019-05-22T07:02:16.578Z,99.90
2019-05-22T07:04:45.662Z,99.90
2019-05-22T07:07:14.985Z,99.90
2019-05-22T07:09:44.942Z,99.90
2019-05-22T07:12:14.937Z,99.90
2019-05-22T07:15:37.453Z,99.90
2019-05-22T07:18:11.927Z,99.90
2019-05-22T07:20:41.428Z,99.90
2019-05-22T07:23:13.115Z,99.90
2019-05-22T07:25:43.896Z,99.90
2019-05-22T07:28:13.829Z,99.90
2019-05-22T07:30:43.614Z,99.90
2019-05-22T07:33:12.514Z,99.90
2019-05-22T07:36:04.635Z,99.90
2019-05-22T07:38:11.902Z,99.90
2019-05-22T07:40:40.690Z,99.90
2019-05-22T07:43:09.259Z,99.90
2019-05-22T07:45:37.263Z,99.90
2019-05-22T07:48:06.747Z,99.90
2019-05-22T07:50:37.677Z,99.90
2019-05-22T07:53:07.839Z,99.90
2019-05-22T07:55:36.141Z,99.90
2019-05-22T07:58:13.025Z,99.90
2019-05-22T08:00:47.023Z,99.90
2019-05-22T08:03:17.230Z,99.90
2019-05-22T08:05:53.108Z,99.90
2019-05-22T08:08:23.648Z,99.90
2019-05-22T08:10:54.635Z,99.90
2019-05-22T08:13:24.447Z,99.90
2019-05-22T08:15:53.508Z,99.90
2019-05-22T08:18:22.179Z,99.90
2019-05-22T08:20:51.481Z,99.90
2019-05-22T08:23:20.270Z,99.90
2019-05-22T08:25:48.605Z,99.90
2019-05-22T08:28:18.405Z,99.90
2019-05-22T08:30:48.580Z,99.90
2019-05-22T08:33:19.020Z,99.90
2019-05-22T08:35:48.483Z,99.90
2019-05-22T08:38:19.258Z,99.90
2019-05-22T08:40:50.426Z,99.90
2019-05-22T08:43:21.473Z,99.90
2019-05-22T08:45:49.566Z,99.90
2019-05-22T08:48:18.212Z,99.90
2019-05-22T08:50:46.944Z,99.90
2019-05-22T08:53:15.902Z,99.90
2019-05-22T08:55:46.109Z,99.90
2019-05-22T08:58:14.976Z,99.90
2019-05-22T09:00:44.150Z,99.90
2019-05-22T09:03:13.076Z,99.90
2019-05-22T09:05:41.795Z,99.90
2019-05-22T09:08:09.706Z,99.90
2019-05-22T09:10:37.754Z,99.90
2019-05-22T09:13:05.656Z,99.90
2019-05-22T09:15:34.391Z,99.90
2019-05-22T09:18:05.161Z,99.90
2019-05-22T09:20:48.989Z,99.90
2019-05-22T09:23:08.420Z,99.90
2019-05-22T09:25:36.774Z,99.90
2019-05-22T09:28:06.532Z,99.90
2019-05-22T09:30:34.785Z,99.90
2019-05-22T09:33:03.911Z,99.90
2019-05-22T09:35:32.195Z,99.90
2019-05-22T09:38:02.725Z,99.90
2019-05-22T09:40:31.738Z,99.90
2019-05-22T09:43:00.859Z,99.90
2019-05-22T09:45:28.722Z,99.90
2019-05-22T09:47:57.293Z,99.90
2019-05-22T09:50:28.516Z,99.90
2019-05-22T09:52:58.363Z,99.90
2019-05-22T09:55:26.495Z,99.90
2019-05-22T09:57:55.723Z,99.90
2019-05-22T10:00:24.429Z,99.90
2019-05-22T10:02:52.862Z,99.90
2019-05-22T10:05:21.182Z,99.90
2019-05-22T10:08:00.363Z,99.90
2019-05-22T10:10:19.815Z,99.90
2019-05-22T10:12:48.219Z,99.90
2019-05-22T10:15:16.549Z,99.90
2019-05-22T10:17:48.509Z,99.90
2019-05-22T10:20:17.293Z,99.90
2019-05-22T10:22:46.218Z,99.90
2019-05-22T10:25:16.675Z,99.90
2019-05-22T10:27:46.377Z,99.90
2019-05-22T10:30:18.667Z,99.90
2019-05-22T10:32:48.458Z,99.90
2019-05-22T10:35:18.487Z,99.90
2019-05-22T10:37:47.328Z,99.90
2019-05-22T10:40:18.291Z,99.90
2019-05-22T10:42:47.189Z,99.90
2019-05-22T10:49:13.601Z,99.90
2019-05-22T10:55:38.404Z,99.90
2019-05-22T10:55:51.083Z,99.90
2019-05-22T11:06:25.424Z,99.90
2019-05-22T11:08:53.861Z,99.90
2019-05-22T11:11:22.725Z,99.90
2019-05-22T11:14:01.376Z,99.90
2019-05-22T11:16:21.462Z,99.90
2019-05-22T11:18:50.906Z,99.90
2019-05-22T11:21:19.224Z,99.90
2019-05-22T11:23:52.635Z,99.90
2019-05-22T11:26:17.686Z,99.90
2019-05-22T11:28:45.616Z,99.90
2019-05-22T11:31:14.265Z,99.90
2019-05-22T11:33:42.295Z,99.90
2019-05-22T11:36:12.457Z,99.90
2019-05-22T11:38:41.699Z,99.90
2019-05-22T11:41:10.851Z,98.50
2019-05-22T11:43:39.302Z,99.70
2019-05-22T11:46:08.133Z,99.90
2019-05-22T11:48:36.067Z,99.90
2019-05-22T11:51:05.582Z,99.60
2019-05-22T11:53:34.526Z,99.90
2019-05-22T11:56:02.606Z,99.90
2019-05-22T11:58:32.616Z,99.50
2019-05-22T12:01:01.075Z,95.90
2019-05-22T12:03:31.107Z,95.70
2019-05-22T12:06:00.834Z,97.20
2019-05-22T12:08:29.094Z,99.90
2019-05-22T12:10:59.527Z,99.00
2019-05-22T12:13:29.029Z,93.90
2019-05-22T12:15:57.567Z,93.40
2019-05-22T12:18:26.500Z,94.60
2019-05-22T12:20:57.695Z,97.70
2019-05-22T12:23:29.588Z,93.60
2019-05-22T12:26:00.912Z,93.40
2019-05-22T12:28:29.132Z,93.60
2019-05-22T12:30:58.233Z,94.40
2019-05-22T12:33:26.144Z,94.10
2019-05-22T12:35:55.122Z,94.00
2019-05-22T12:38:26.701Z,92.50
2019-05-22T12:40:53.735Z,93.70
2019-05-22T12:43:23.513Z,92.80
2019-05-22T12:45:52.966Z,94.50
2019-05-22T12:48:21.514Z,95.30
2019-05-22T12:50:50.110Z,93.10
2019-05-22T12:53:20.968Z,94.30
2019-05-22T12:55:49.081Z,93.70
2019-05-22T12:58:18.356Z,94.40
2019-05-22T13:00:46.511Z,94.80
2019-05-22T13:03:15.024Z,91.80
2019-05-22T13:05:44.646Z,92.40
2019-05-22T13:08:13.821Z,94.30
2019-05-22T13:10:42.446Z,92.00
2019-05-22T13:13:10.979Z,92.30
2019-05-22T13:15:39.338Z,94.80
2019-05-22T13:18:09.402Z,93.10
2019-05-22T13:20:44.513Z,92.90
2019-05-22T13:23:19.725Z,91.20
2019-05-22T13:25:49.804Z,92.90
2019-05-22T13:28:19.215Z,93.70
2019-05-22T13:30:52.124Z,92.10
2019-05-22T13:33:24.238Z,92.40
2019-05-22T13:35:55.321Z,93.40
2019-05-22T13:38:23.576Z,92.40
2019-05-22T13:40:53.350Z,91.50
2019-05-22T13:43:21.936Z,90.60
2019-05-22T13:45:50.687Z,90.60
2019-05-22T13:48:18.690Z,91.00
2019-05-22T13:50:48.547Z,90.80
2019-05-22T13:53:17.359Z,91.90
2019-05-22T13:55:47.464Z,90.10
2019-05-22T13:58:17.997Z,87.60
2019-05-22T14:00:48.605Z,85.10
2019-05-22T14:03:17.880Z,87.60
2019-05-22T14:05:48.041Z,89.50
2019-05-22T14:08:18.083Z,90.30
2019-05-22T14:10:50.094Z,90.50
2019-05-22T14:13:19.391Z,84.00
2019-05-22T14:15:56.185Z,84.90
2019-05-22T14:18:19.041Z,82.20
2019-05-22T14:20:48.251Z,82.70
2019-05-22T14:23:16.679Z,86.90
2019-05-22T14:25:46.529Z,80.30
2019-05-22T14:28:17.314Z,82.90
2019-05-22T14:30:47.030Z,81.40
2019-05-22T14:33:15.739Z,82.90
2019-05-22T14:35:48.892Z,82.10
2019-05-22T14:38:16.089Z,84.40
2019-05-22T14:40:44.797Z,82.30
2019-05-22T14:43:13.523Z,83.10
2019-05-22T14:45:42.996Z,86.00
2019-05-22T14:48:13.392Z,80.80
2019-05-22T14:50:43.505Z,80.70
2019-05-22T14:53:13.212Z,83.60
2019-05-22T14:55:44.070Z,79.90
2019-05-22T14:58:15.247Z,82.00
2019-05-22T15:00:44.590Z,83.20
2019-05-22T15:03:13.928Z,84.70
2019-05-22T15:05:45.818Z,83.20
2019-05-22T15:08:14.351Z,79.50
2019-05-22T15:10:43.101Z,81.40
2019-05-22T15:13:12.216Z,77.10
2019-05-22T15:15:41.106Z,77.70
2019-05-22T15:18:10.332Z,75.80
2019-05-22T15:21:02.061Z,78.90
2019-05-22T15:23:32.983Z,83.70
2019-05-22T15:26:02.666Z,79.50
2019-05-22T15:28:32.504Z,80.80
2019-05-22T15:31:02.314Z,81.50
2019-05-22T15:33:32.486Z,81.90
2019-05-22T15:36:06.823Z,76.80
2019-05-22T15:38:40.443Z,77.80
2019-05-22T15:41:10.211Z,79.00
2019-05-22T15:43:41.809Z,77.40
2019-05-22T15:46:14.158Z,78.40
2019-05-22T15:48:44.728Z,80.30
2019-05-22T15:51:13.294Z,78.60
2019-05-22T15:53:45.317Z,81.50
2019-05-22T15:56:14.079Z,79.20
2019-05-22T15:58:50.903Z,77.70
2019-05-22T16:01:24.122Z,81.80
2019-05-22T16:03:54.564Z,78.60
2019-05-22T16:06:26.636Z,82.10
2019-05-22T16:09:01.042Z,78.20
2019-05-22T16:11:33.569Z,82.70
2019-05-22T16:14:02.854Z,79.60
2019-05-22T16:16:34.211Z,79.00
2019-05-22T16:19:05.126Z,77.70
2019-05-22T16:21:37.786Z,78.00
2019-05-22T16:24:10.144Z,74.10
2019-05-22T16:26:39.879Z,78.50
2019-05-22T16:29:08.390Z,78.10
2019-05-22T16:31:39.086Z,78.90
2019-05-22T16:34:09.320Z,81.50
2019-05-22T16:36:38.020Z,78.20
2019-05-22T16:39:10.489Z,82.50
2019-05-22T16:41:40.565Z,75.60
2019-05-22T16:44:08.970Z,75.70
2019-05-22T16:46:39.818Z,74.10
2019-05-22T16:49:10.238Z,77.20
2019-05-22T16:51:39.305Z,75.80
2019-05-22T16:54:12.337Z,74.80
2019-05-22T16:56:41.309Z,76.30
2019-05-22T16:59:10.675Z,77.10
2019-05-22T17:01:57.815Z,75.80
2019-05-22T17:04:11.537Z,75.50
2019-05-22T17:06:43.144Z,74.60
2019-05-22T17:09:21.007Z,75.70
2019-05-22T17:12:07.807Z,75.30
2019-05-22T17:14:52.686Z,75.60
2019-05-22T17:17:21.638Z,77.20
2019-05-22T17:20:05.181Z,75.30
2019-05-22T17:22:41.066Z,76.90
2019-05-22T17:25:31.012Z,76.60
2019-05-22T17:27:59.804Z,76.30
2019-05-22T17:30:31.813Z,76.00
2019-05-22T17:33:01.879Z,75.60
2019-05-22T17:35:34.766Z,77.60
2019-05-22T17:38:05.786Z,79.50
2019-05-22T17:40:36.028Z,78.20
2019-05-22T17:43:12.492Z,78.10
2019-05-22T17:45:48.532Z,79.40
2019-05-22T17:48:23.352Z,80.40
2019-05-22T17:50:53.721Z,82.90
2019-05-22T17:54:14.475Z,82.80
2019-05-22T18:00:34.443Z,82.50
2019-05-22T18:04:13.006Z,82.60
2019-05-22T18:08:21.250Z,82.70
2019-05-22T18:15:00.018Z,84.00
2019-05-22T18:18:03.858Z,84.20
2019-05-22T18:23:54.107Z,84.60
2019-05-22T18:26:23.367Z,84.50
2019-05-22T18:29:01.811Z,84.10
2019-05-22T18:31:32.732Z,84.60
2019-05-22T18:34:09.709Z,83.70
2019-05-22T18:36:37.842Z,84.50
2019-05-22T18:39:25.939Z,86.00
2019-05-22T18:41:58.599Z,86.30
2019-05-22T18:44:46.776Z,86.60
2019-05-22T18:47:18.317Z,87.80
2019-05-22T18:50:12.892Z,87.50
2019-05-22T18:52:46.929Z,87.70
2019-05-22T18:55:17.024Z,87.60
2019-05-22T18:57:57.418Z,87.70
2019-05-22T19:00:31.186Z,87.50
2019-05-22T19:03:00.296Z,87.90
2019-05-22T19:05:31.104Z,87.70
2019-05-22T19:08:03.049Z,87.90
2019-05-22T19:10:42.110Z,88.00
2019-05-22T19:13:14.251Z,88.20
2019-05-22T19:15:45.091Z,88.00
2019-05-22T19:18:37.542Z,87.80
2019-05-22T19:21:16.003Z,87.80
2019-05-22T19:30:46.763Z,89.20
2019-05-22T19:33:15.237Z,90.00
2019-05-22T19:36:06.967Z,89.50
2019-05-22T19:38:36.300Z,89.80
2019-05-22T19:41:07.751Z,89.90
2019-05-22T19:44:26.773Z,90.00
2019-05-22T19:46:53.750Z,90.00
2019-05-22T19:49:23.003Z,89.80
2019-05-22T19:51:51.383Z,89.60
2019-05-22T19:54:21.009Z,89.70
2019-05-22T19:56:49.782Z,89.90
2019-05-22T19:59:18.349Z,90.00
2019-05-22T20:01:46.720Z,90.10
2019-05-22T20:04:15.236Z,90.20
2019-05-22T20:06:43.326Z,90.10
2019-05-22T20:09:12.671Z,90.30
2019-05-22T20:11:41.232Z,90.30
2019-05-22T20:14:09.866Z,90.40
2019-05-22T20:16:38.927Z,90.40
2019-05-22T20:19:07.631Z,90.40
2019-05-22T20:21:36.909Z,90.40
2019-05-22T20:24:05.855Z,90.50
2019-05-22T20:26:33.886Z,90.50
2019-05-22T20:29:03.317Z,90.40
2019-05-22T20:31:33.902Z,90.50
2019-05-22T20:34:02.350Z,90.60
2019-05-22T20:36:31.380Z,90.70
2019-05-22T20:39:00.123Z,90.70
2019-05-22T20:41:29.568Z,90.80
2019-05-22T20:43:59.082Z,90.80
2019-05-22T20:46:30.140Z,90.90
2019-05-22T20:49:00.201Z,91.00
2019-05-22T20:51:28.567Z,91.10
2019-05-22T20:53:57.889Z,91.20
2019-05-22T20:56:29.001Z,91.20
2019-05-22T20:59:00.760Z,91.00
2019-05-22T21:01:33.082Z,91.00
2019-05-22T21:04:03.401Z,90.90
2019-05-22T21:06:39.220Z,90.90
2019-05-22T21:09:09.369Z,91.00
2019-05-22T21:11:39.704Z,91.00
2019-05-22T21:14:08.491Z,91.10
2019-05-22T21:16:37.640Z,91.10
2019-05-22T21:19:06.517Z,91.10
2019-05-22T21:21:35.992Z,91.10
2019-05-22T21:24:11.580Z,91.00
2019-05-22T21:26:34.716Z,91.20
2019-05-22T21:29:04.511Z,91.30
2019-05-22T21:31:33.964Z,91.40
2019-05-22T21:34:03.608Z,91.40
2019-05-22T21:36:33.209Z,91.50
2019-05-22T21:39:01.403Z,91.70
2019-05-22T21:41:33.895Z,91.50
2019-05-22T21:44:02.341Z,91.80
2019-05-22T21:46:30.664Z,91.60
2019-05-22T21:48:59.354Z,91.90
2019-05-22T21:51:29.109Z,92.00
2019-05-22T21:53:57.689Z,91.90
2019-05-22T21:56:25.905Z,91.90
2019-05-22T21:58:54.048Z,92.00
2019-05-22T22:01:30.382Z,92.30
2019-05-22T22:04:09.128Z,92.10
2019-05-22T22:06:38.848Z,92.50
2019-05-22T22:09:08.417Z,92.20
2019-05-22T22:11:37.890Z,92.20
2019-05-22T22:14:07.231Z,92.20
2019-05-22T22:16:35.667Z,92.20
2019-05-22T22:19:04.379Z,92.40
2019-05-22T22:21:33.798Z,92.40
2019-05-22T22:24:02.115Z,92.60
2019-05-22T22:26:31.273Z,92.60
2019-05-22T22:29:00.596Z,92.60
2019-05-22T22:31:31.179Z,92.70
2019-05-22T22:34:13.142Z,92.80
2019-05-22T22:36:42.933Z,92.60
2019-05-22T22:39:14.406Z,92.70
2019-05-22T22:41:45.572Z,92.70
2019-05-22T22:44:15.581Z,92.60
2019-05-22T22:46:51.269Z,93.10
2019-05-22T22:49:22.867Z,93.20
2019-05-22T22:51:52.496Z,93.30
2019-05-22T22:54:22.827Z,93.20
2019-05-22T22:56:52.152Z,93.20
2019-05-22T22:59:20.498Z,93.20
2019-05-22T23:01:52.727Z,93.30
2019-05-22T23:04:26.042Z,93.40
2019-05-22T23:06:58.959Z,93.50
2019-05-22T23:09:29.399Z,93.70
2019-05-22T23:11:59.947Z,93.70
2019-05-22T23:14:30.555Z,93.80
2019-05-22T23:17:00.114Z,93.70
2019-05-22T23:19:31.512Z,93.50
2019-05-22T23:22:07.603Z,93.40
2019-05-22T23:24:39.118Z,93.40
2019-05-22T23:27:08.728Z,93.40
2019-05-22T23:29:37.924Z,93.60
2019-05-22T23:32:08.804Z,94.10
2019-05-22T23:34:38.295Z,94.40
2019-05-22T23:37:10.070Z,94.30
2019-05-22T23:39:39.478Z,94.60
2019-05-22T23:42:12.482Z,95.20
2019-05-22T23:44:43.612Z,95.30
2019-05-22T23:47:13.486Z,95.60
2019-05-22T23:49:42.965Z,94.90
2019-05-22T23:52:13.808Z,95.00
2019-05-22T23:54:43.950Z,94.60
2019-05-22T23:57:14.005Z,94.60
2019-05-22T23:59:45.333Z,94.50
